sensor_id;sensor_type;location;lat;lon;timestamp;P1;durP1;ratioP1;P2;durP2;ratioP2
8458;SDS011;4266;48.816;9.154;2022-07-23T00:01:16;8.23;;;5.70;;
8458;SDS011;4266;48.816;9.154;2022-07-23T00:03:41;6.37;;;5.78;;
8458;SDS011;4266;48.816;9.154;2022-07-23T00:06:08;5.15;;;4.62;;
8458;SDS011;4266;48.816;9.154;2022-07-23T00:08:33;5.57;;;5.10;;
8458;SDS011;4266;48.816;9.154;2022-07-23T00:11:00;7.12;;;4.78;;
8458;SDS011;4266;48.816;9.154;2022-07-23T00:13:26;5.35;;;4.95;;
8458;SDS011;4266;48.816;9.154;2022-07-23T00:15:51;7.43;;;5.03;;
8458;SDS011;4266;48.816;9.154;2022-07-23T00:18:17;4.80;;;4.50;;
8458;SDS011;4266;48.816;9.154;2022-07-23T00:20:42;5.32;;;4.82;;
8458;SDS011;4266;48.816;9.154;2022-07-23T00:23:08;10.50;;;5.00;;
8458;SDS011;4266;48.816;9.154;2022-07-23T00:25:34;5.85;;;5.35;;
8458;SDS011;4266;48.816;9.154;2022-07-23T00:28:00;5.30;;;4.90;;
8458;SDS011;4266;48.816;9.154;2022-07-23T00:30:25;5.60;;;5.07;;
8458;SDS011;4266;48.816;9.154;2022-07-23T00:32:52;5.45;;;5.05;;
8458;SDS011;4266;48.816;9.154;2022-07-23T00:35:18;5.22;;;4.80;;
8458;SDS011;4266;48.816;9.154;2022-07-23T00:37:42;5.45;;;5.05;;
8458;SDS011;4266;48.816;9.154;2022-07-23T00:40:08;5.15;;;4.75;;
8458;SDS011;4266;48.816;9.154;2022-07-23T00:42:35;5.32;;;4.93;;
8458;SDS011;4266;48.816;9.154;2022-07-23T00:45:02;5.35;;;4.85;;
8458;SDS011;4266;48.816;9.154;2022-07-23T00:47:28;5.15;;;4.70;;
8458;SDS011;4266;48.816;9.154;2022-07-23T00:49:54;5.70;;;5.30;;
8458;SDS011;4266;48.816;9.154;2022-07-23T00:52:19;4.95;;;4.57;;
8458;SDS011;4266;48.816;9.154;2022-07-23T00:54:45;6.15;;;5.18;;
8458;SDS011;4266;48.816;9.154;2022-07-23T00:57:10;5.30;;;4.90;;
8458;SDS011;4266;48.816;9.154;2022-07-23T00:59:38;5.30;;;4.93;;
8458;SDS011;4266;48.816;9.154;2022-07-23T01:02:02;5.20;;;4.82;;
8458;SDS011;4266;48.816;9.154;2022-07-23T01:04:27;6.15;;;5.18;;
8458;SDS011;4266;48.816;9.154;2022-07-23T01:06:53;5.37;;;4.97;;
8458;SDS011;4266;48.816;9.154;2022-07-23T01:09:18;4.72;;;4.43;;
8458;SDS011;4266;48.816;9.154;2022-07-23T01:11:44;5.50;;;4.97;;
8458;SDS011;4266;48.816;9.154;2022-07-23T01:14:12;6.22;;;5.12;;
8458;SDS011;4266;48.816;9.154;2022-07-23T01:16:37;5.32;;;4.68;;
8458;SDS011;4266;48.816;9.154;2022-07-23T01:19:03;5.07;;;4.62;;
8458;SDS011;4266;48.816;9.154;2022-07-23T01:21:28;6.03;;;4.50;;
8458;SDS011;4266;48.816;9.154;2022-07-23T01:23:54;5.70;;;5.25;;
8458;SDS011;4266;48.816;9.154;2022-07-23T01:26:19;5.57;;;5.07;;
8458;SDS011;4266;48.816;9.154;2022-07-23T01:28:45;5.62;;;5.22;;
8458;SDS011;4266;48.816;9.154;2022-07-23T01:31:11;5.12;;;4.82;;
8458;SDS011;4266;48.816;9.154;2022-07-23T01:33:36;5.53;;;5.05;;
8458;SDS011;4266;48.816;9.154;2022-07-23T01:36:02;5.35;;;4.70;;
8458;SDS011;4266;48.816;9.154;2022-07-23T01:38:28;5.25;;;4.85;;
8458;SDS011;4266;48.816;9.154;2022-07-23T01:40:54;5.25;;;4.93;;
8458;SDS011;4266;48.816;9.154;2022-07-23T01:43:19;5.30;;;4.90;;
8458;SDS011;4266;48.816;9.154;2022-07-23T01:45:45;5.35;;;4.95;;
8458;SDS011;4266;48.816;9.154;2022-07-23T01:48:10;4.97;;;4.68;;
8458;SDS011;4266;48.816;9.154;2022-07-23T01:50:38;5.53;;;5.03;;
8458;SDS011;4266;48.816;9.154;2022-07-23T01:53:03;5.37;;;4.90;;
8458;SDS011;4266;48.816;9.154;2022-07-23T01:55:29;5.47;;;5.07;;
8458;SDS011;4266;48.816;9.154;2022-07-23T01:57:55;5.18;;;4.80;;
8458;SDS011;4266;48.816;9.154;2022-07-23T02:00:21;5.35;;;4.85;;
8458;SDS011;4266;48.816;9.154;2022-07-23T02:02:46;4.85;;;4.55;;
8458;SDS011;4266;48.816;9.154;2022-07-23T02:05:12;6.03;;;5.43;;
8458;SDS011;4266;48.816;9.154;2022-07-23T02:07:38;5.62;;;5.12;;
8458;SDS011;4266;48.816;9.154;2022-07-23T02:10:04;6.40;;;4.93;;
8458;SDS011;4266;48.816;9.154;2022-07-23T02:12:31;5.35;;;4.95;;
8458;SDS011;4266;48.816;9.154;2022-07-23T02:14:57;6.00;;;5.40;;
8458;SDS011;4266;48.816;9.154;2022-07-23T02:17:23;5.47;;;4.97;;
8458;SDS011;4266;48.816;9.154;2022-07-23T02:19:49;5.80;;;5.30;;
8458;SDS011;4266;48.816;9.154;2022-07-23T02:22:15;5.65;;;5.20;;
8458;SDS011;4266;48.816;9.154;2022-07-23T02:24:41;5.15;;;4.68;;
8458;SDS011;4266;48.816;9.154;2022-07-23T02:27:06;5.22;;;4.85;;
8458;SDS011;4266;48.816;9.154;2022-07-23T02:29:32;6.75;;;5.60;;
8458;SDS011;4266;48.816;9.154;2022-07-23T02:31:57;5.93;;;5.15;;
8458;SDS011;4266;48.816;9.154;2022-07-23T02:34:23;6.12;;;5.62;;
8458;SDS011;4266;48.816;9.154;2022-07-23T02:36:49;6.45;;;5.95;;
8458;SDS011;4266;48.816;9.154;2022-07-23T02:39:14;6.05;;;5.57;;
8458;SDS011;4266;48.816;9.154;2022-07-23T02:41:40;5.80;;;5.20;;
8458;SDS011;4266;48.816;9.154;2022-07-23T02:44:06;5.90;;;5.50;;
8458;SDS011;4266;48.816;9.154;2022-07-23T02:46:31;5.65;;;5.25;;
8458;SDS011;4266;48.816;9.154;2022-07-23T02:48:57;5.72;;;5.32;;
8458;SDS011;4266;48.816;9.154;2022-07-23T02:51:22;6.18;;;5.62;;
8458;SDS011;4266;48.816;9.154;2022-07-23T02:53:48;6.35;;;5.85;;
8458;SDS011;4266;48.816;9.154;2022-07-23T02:56:14;5.85;;;5.40;;
8458;SDS011;4266;48.816;9.154;2022-07-23T02:58:39;5.68;;;5.28;;
8458;SDS011;4266;48.816;9.154;2022-07-23T03:01:05;5.70;;;5.20;;
8458;SDS011;4266;48.816;9.154;2022-07-23T03:03:30;5.85;;;5.28;;
8458;SDS011;4266;48.816;9.154;2022-07-23T03:05:56;5.90;;;5.40;;
8458;SDS011;4266;48.816;9.154;2022-07-23T03:08:22;6.00;;;5.50;;
8458;SDS011;4266;48.816;9.154;2022-07-23T03:10:48;6.25;;;5.65;;
8458;SDS011;4266;48.816;9.154;2022-07-23T03:13:14;5.93;;;5.50;;
8458;SDS011;4266;48.816;9.154;2022-07-23T03:15:39;5.78;;;5.37;;
8458;SDS011;4266;48.816;9.154;2022-07-23T03:18:06;5.82;;;5.43;;
8458;SDS011;4266;48.816;9.154;2022-07-23T03:20:31;5.45;;;5.00;;
8458;SDS011;4266;48.816;9.154;2022-07-23T03:22:57;5.32;;;4.93;;
8458;SDS011;4266;48.816;9.154;2022-07-23T03:25:23;5.97;;;5.47;;
8458;SDS011;4266;48.816;9.154;2022-07-23T03:27:49;6.03;;;5.50;;
8458;SDS011;4266;48.816;9.154;2022-07-23T03:30:15;5.70;;;5.25;;
8458;SDS011;4266;48.816;9.154;2022-07-23T03:32:40;5.45;;;5.05;;
8458;SDS011;4266;48.816;9.154;2022-07-23T03:35:06;5.50;;;4.97;;
8458;SDS011;4266;48.816;9.154;2022-07-23T03:37:33;6.30;;;5.30;;
8458;SDS011;4266;48.816;9.154;2022-07-23T03:39:58;5.87;;;5.40;;
8458;SDS011;4266;48.816;9.154;2022-07-23T03:42:24;5.45;;;5.10;;
8458;SDS011;4266;48.816;9.154;2022-07-23T03:44:49;5.50;;;5.03;;
8458;SDS011;4266;48.816;9.154;2022-07-23T03:47:15;5.43;;;4.93;;
8458;SDS011;4266;48.816;9.154;2022-07-23T03:49:41;6.05;;;5.57;;
8458;SDS011;4266;48.816;9.154;2022-07-23T03:52:06;6.30;;;5.80;;
8458;SDS011;4266;48.816;9.154;2022-07-23T03:54:33;6.10;;;5.60;;
8458;SDS011;4266;48.816;9.154;2022-07-23T03:56:58;6.00;;;5.50;;
8458;SDS011;4266;48.816;9.154;2022-07-23T03:59:24;5.93;;;5.53;;
8458;SDS011;4266;48.816;9.154;2022-07-23T04:01:50;6.03;;;5.53;;
8458;SDS011;4266;48.816;9.154;2022-07-23T04:04:15;6.00;;;5.60;;
8458;SDS011;4266;48.816;9.154;2022-07-23T04:06:42;5.80;;;5.40;;
8458;SDS011;4266;48.816;9.154;2022-07-23T04:09:07;5.85;;;5.35;;
8458;SDS011;4266;48.816;9.154;2022-07-23T04:11:33;5.82;;;5.45;;
8458;SDS011;4266;48.816;9.154;2022-07-23T04:13:58;6.03;;;5.53;;
8458;SDS011;4266;48.816;9.154;2022-07-23T04:16:25;5.87;;;5.40;;
8458;SDS011;4266;48.816;9.154;2022-07-23T04:18:50;5.87;;;5.45;;
8458;SDS011;4266;48.816;9.154;2022-07-23T04:21:16;6.07;;;5.60;;
8458;SDS011;4266;48.816;9.154;2022-07-23T04:23:42;5.97;;;5.57;;
8458;SDS011;4266;48.816;9.154;2022-07-23T04:26:08;6.30;;;5.75;;
8458;SDS011;4266;48.816;9.154;2022-07-23T04:28:34;6.20;;;5.70;;
8458;SDS011;4266;48.816;9.154;2022-07-23T04:30:59;5.90;;;5.50;;
8458;SDS011;4266;48.816;9.154;2022-07-23T04:33:25;6.15;;;5.75;;
8458;SDS011;4266;48.816;9.154;2022-07-23T04:35:51;6.57;;;5.97;;
8458;SDS011;4266;48.816;9.154;2022-07-23T04:38:16;6.20;;;5.78;;
8458;SDS011;4266;48.816;9.154;2022-07-23T04:40:42;6.53;;;5.93;;
8458;SDS011;4266;48.816;9.154;2022-07-23T04:43:09;6.20;;;5.68;;
8458;SDS011;4266;48.816;9.154;2022-07-23T04:45:34;6.47;;;5.50;;
8458;SDS011;4266;48.816;9.154;2022-07-23T04:48:00;5.62;;;5.22;;
8458;SDS011;4266;48.816;9.154;2022-07-23T04:50:26;5.93;;;5.50;;
8458;SDS011;4266;48.816;9.154;2022-07-23T04:52:51;6.70;;;6.20;;
8458;SDS011;4266;48.816;9.154;2022-07-23T04:55:18;6.28;;;5.87;;
8458;SDS011;4266;48.816;9.154;2022-07-23T04:57:44;5.72;;;5.32;;
8458;SDS011;4266;48.816;9.154;2022-07-23T05:00:10;5.70;;;5.30;;
8458;SDS011;4266;48.816;9.154;2022-07-23T05:02:36;5.78;;;5.37;;
8458;SDS011;4266;48.816;9.154;2022-07-23T05:05:03;6.85;;;5.90;;
8458;SDS011;4266;48.816;9.154;2022-07-23T05:07:30;6.50;;;6.00;;
8458;SDS011;4266;48.816;9.154;2022-07-23T05:09:55;5.70;;;5.30;;
8458;SDS011;4266;48.816;9.154;2022-07-23T05:12:21;6.37;;;5.80;;
8458;SDS011;4266;48.816;9.154;2022-07-23T05:14:46;5.93;;;5.43;;
8458;SDS011;4266;48.816;9.154;2022-07-23T05:17:12;6.47;;;5.95;;
8458;SDS011;4266;48.816;9.154;2022-07-23T05:19:38;5.90;;;5.35;;
8458;SDS011;4266;48.816;9.154;2022-07-23T05:22:03;7.37;;;5.30;;
8458;SDS011;4266;48.816;9.154;2022-07-23T05:24:29;5.50;;;5.15;;
8458;SDS011;4266;48.816;9.154;2022-07-23T05:26:55;5.20;;;4.85;;
8458;SDS011;4266;48.816;9.154;2022-07-23T05:29:20;5.80;;;5.40;;
8458;SDS011;4266;48.816;9.154;2022-07-23T05:31:46;5.60;;;5.25;;
8458;SDS011;4266;48.816;9.154;2022-07-23T05:34:11;6.00;;;5.60;;
8458;SDS011;4266;48.816;9.154;2022-07-23T05:36:37;5.87;;;5.37;;
8458;SDS011;4266;48.816;9.154;2022-07-23T05:39:03;6.12;;;5.53;;
8458;SDS011;4266;48.816;9.154;2022-07-23T05:41:29;5.80;;;5.40;;
8458;SDS011;4266;48.816;9.154;2022-07-23T05:43:56;5.68;;;5.18;;
8458;SDS011;4266;48.816;9.154;2022-07-23T05:46:21;6.28;;;5.70;;
8458;SDS011;4266;48.816;9.154;2022-07-23T05:48:47;8.13;;;5.62;;
8458;SDS011;4266;48.816;9.154;2022-07-23T05:51:12;6.05;;;5.57;;
8458;SDS011;4266;48.816;9.154;2022-07-23T05:53:38;6.12;;;5.62;;
8458;SDS011;4266;48.816;9.154;2022-07-23T05:56:03;5.93;;;5.53;;
8458;SDS011;4266;48.816;9.154;2022-07-23T05:58:29;5.95;;;5.55;;
8458;SDS011;4266;48.816;9.154;2022-07-23T06:00:55;5.87;;;5.37;;
8458;SDS011;4266;48.816;9.154;2022-07-23T06:03:20;6.47;;;5.53;;
8458;SDS011;4266;48.816;9.154;2022-07-23T06:05:46;6.87;;;6.07;;
8458;SDS011;4266;48.816;9.154;2022-07-23T06:08:12;6.32;;;5.82;;
8458;SDS011;4266;48.816;9.154;2022-07-23T06:10:37;7.43;;;5.72;;
8458;SDS011;4266;48.816;9.154;2022-07-23T06:13:03;6.57;;;6.05;;
8458;SDS011;4266;48.816;9.154;2022-07-23T06:15:29;5.95;;;5.53;;
8458;SDS011;4266;48.816;9.154;2022-07-23T06:17:56;6.28;;;5.80;;
8458;SDS011;4266;48.816;9.154;2022-07-23T06:20:21;5.87;;;5.47;;
8458;SDS011;4266;48.816;9.154;2022-07-23T06:22:47;6.10;;;5.60;;
8458;SDS011;4266;48.816;9.154;2022-07-23T06:25:13;6.12;;;5.65;;
8458;SDS011;4266;48.816;9.154;2022-07-23T06:27:39;6.47;;;5.60;;
8458;SDS011;4266;48.816;9.154;2022-07-23T06:30:06;6.22;;;5.78;;
8458;SDS011;4266;48.816;9.154;2022-07-23T06:32:33;5.87;;;5.37;;
8458;SDS011;4266;48.816;9.154;2022-07-23T06:34:59;5.85;;;5.45;;
8458;SDS011;4266;48.816;9.154;2022-07-23T06:37:25;5.82;;;5.43;;
8458;SDS011;4266;48.816;9.154;2022-07-23T06:39:50;7.95;;;6.68;;
8458;SDS011;4266;48.816;9.154;2022-07-23T06:42:16;6.82;;;6.10;;
8458;SDS011;4266;48.816;9.154;2022-07-23T06:44:41;6.90;;;5.97;;
8458;SDS011;4266;48.816;9.154;2022-07-23T06:47:08;6.32;;;5.72;;
8458;SDS011;4266;48.816;9.154;2022-07-23T06:49:34;6.95;;;5.80;;
8458;SDS011;4266;48.816;9.154;2022-07-23T06:52:00;5.65;;;5.25;;
8458;SDS011;4266;48.816;9.154;2022-07-23T06:54:26;6.22;;;5.72;;
8458;SDS011;4266;48.816;9.154;2022-07-23T06:56:52;5.95;;;5.55;;
8458;SDS011;4266;48.816;9.154;2022-07-23T06:59:18;6.22;;;5.82;;
8458;SDS011;4266;48.816;9.154;2022-07-23T07:01:44;6.78;;;5.53;;
8458;SDS011;4266;48.816;9.154;2022-07-23T07:04:09;7.50;;;5.93;;
8458;SDS011;4266;48.816;9.154;2022-07-23T07:06:35;6.40;;;5.90;;
8458;SDS011;4266;48.816;9.154;2022-07-23T07:09:01;6.65;;;6.05;;
8458;SDS011;4266;48.816;9.154;2022-07-23T07:11:26;6.80;;;6.30;;
8458;SDS011;4266;48.816;9.154;2022-07-23T07:13:52;6.95;;;5.95;;
8458;SDS011;4266;48.816;9.154;2022-07-23T07:16:17;7.68;;;5.95;;
8458;SDS011;4266;48.816;9.154;2022-07-23T07:18:43;8.48;;;6.30;;
8458;SDS011;4266;48.816;9.154;2022-07-23T07:21:09;6.50;;;5.90;;
8458;SDS011;4266;48.816;9.154;2022-07-23T07:23:35;7.18;;;6.53;;
8458;SDS011;4266;48.816;9.154;2022-07-23T07:26:01;6.15;;;5.62;;
8458;SDS011;4266;48.816;9.154;2022-07-23T07:28:26;6.20;;;5.70;;
8458;SDS011;4266;48.816;9.154;2022-07-23T07:30:52;6.43;;;5.97;;
8458;SDS011;4266;48.816;9.154;2022-07-23T07:33:18;6.62;;;6.12;;
8458;SDS011;4266;48.816;9.154;2022-07-23T07:35:43;6.87;;;6.37;;
8458;SDS011;4266;48.816;9.154;2022-07-23T07:38:09;7.22;;;6.55;;
8458;SDS011;4266;48.816;9.154;2022-07-23T07:40:34;7.10;;;6.43;;
8458;SDS011;4266;48.816;9.154;2022-07-23T07:43:00;7.35;;;6.50;;
8458;SDS011;4266;48.816;9.154;2022-07-23T07:45:26;7.70;;;6.85;;
8458;SDS011;4266;48.816;9.154;2022-07-23T07:47:52;6.90;;;6.40;;
8458;SDS011;4266;48.816;9.154;2022-07-23T07:50:18;6.53;;;6.03;;
8458;SDS011;4266;48.816;9.154;2022-07-23T07:52:44;6.20;;;5.70;;
8458;SDS011;4266;48.816;9.154;2022-07-23T07:55:09;6.55;;;6.05;;
8458;SDS011;4266;48.816;9.154;2022-07-23T07:57:36;6.32;;;5.80;;
8458;SDS011;4266;48.816;9.154;2022-07-23T08:00:02;6.55;;;6.05;;
8458;SDS011;4266;48.816;9.154;2022-07-23T08:02:28;6.40;;;5.95;;
8458;SDS011;4266;48.816;9.154;2022-07-23T08:04:54;6.37;;;5.90;;
8458;SDS011;4266;48.816;9.154;2022-07-23T08:07:20;6.50;;;6.00;;
8458;SDS011;4266;48.816;9.154;2022-07-23T08:09:47;6.82;;;6.32;;
8458;SDS011;4266;48.816;9.154;2022-07-23T08:12:12;7.07;;;6.53;;
8458;SDS011;4266;48.816;9.154;2022-07-23T08:14:38;6.10;;;5.60;;
8458;SDS011;4266;48.816;9.154;2022-07-23T08:17:04;6.25;;;5.75;;
8458;SDS011;4266;48.816;9.154;2022-07-23T08:19:29;6.55;;;6.05;;
8458;SDS011;4266;48.816;9.154;2022-07-23T08:21:55;6.78;;;6.10;;
8458;SDS011;4266;48.816;9.154;2022-07-23T08:24:21;6.93;;;6.32;;
8458;SDS011;4266;48.816;9.154;2022-07-23T08:26:46;6.55;;;6.00;;
8458;SDS011;4266;48.816;9.154;2022-07-23T08:29:12;6.40;;;5.90;;
8458;SDS011;4266;48.816;9.154;2022-07-23T08:31:38;6.22;;;5.62;;
8458;SDS011;4266;48.816;9.154;2022-07-23T08:36:44;6.60;;;6.10;;
8458;SDS011;4266;48.816;9.154;2022-07-23T08:39:09;6.28;;;5.78;;
8458;SDS011;4266;48.816;9.154;2022-07-23T08:41:36;5.95;;;5.55;;
8458;SDS011;4266;48.816;9.154;2022-07-23T08:44:02;6.62;;;5.97;;
8458;SDS011;4266;48.816;9.154;2022-07-23T08:46:28;5.60;;;4.95;;
8458;SDS011;4266;48.816;9.154;2022-07-23T08:48:54;6.10;;;5.50;;
8458;SDS011;4266;48.816;9.154;2022-07-23T08:51:20;5.57;;;5.25;;
8458;SDS011;4266;48.816;9.154;2022-07-23T08:53:46;5.75;;;5.32;;
8458;SDS011;4266;48.816;9.154;2022-07-23T08:56:12;5.68;;;5.18;;
8458;SDS011;4266;48.816;9.154;2022-07-23T08:58:38;6.03;;;5.53;;
8458;SDS011;4266;48.816;9.154;2022-07-23T09:01:03;5.50;;;5.10;;
8458;SDS011;4266;48.816;9.154;2022-07-23T09:03:30;5.95;;;5.45;;
8458;SDS011;4266;48.816;9.154;2022-07-23T09:05:57;5.60;;;5.15;;
8458;SDS011;4266;48.816;9.154;2022-07-23T09:08:24;7.22;;;5.57;;
8458;SDS011;4266;48.816;9.154;2022-07-23T09:10:52;5.32;;;4.82;;
8458;SDS011;4266;48.816;9.154;2022-07-23T09:16:02;6.18;;;5.60;;
8458;SDS011;4266;48.816;9.154;2022-07-23T09:18:28;5.95;;;5.50;;
8458;SDS011;4266;48.816;9.154;2022-07-23T09:21:04;5.62;;;4.90;;
8458;SDS011;4266;48.816;9.154;2022-07-23T09:23:18;5.62;;;5.15;;
8458;SDS011;4266;48.816;9.154;2022-07-23T09:25:44;5.28;;;4.87;;
8458;SDS011;4266;48.816;9.154;2022-07-23T09:28:10;5.57;;;5.07;;
8458;SDS011;4266;48.816;9.154;2022-07-23T09:30:36;5.10;;;4.65;;
8458;SDS011;4266;48.816;9.154;2022-07-23T09:33:04;5.62;;;5.22;;
8458;SDS011;4266;48.816;9.154;2022-07-23T09:38:15;5.60;;;5.10;;
8458;SDS011;4266;48.816;9.154;2022-07-23T09:40:43;5.40;;;4.90;;
8458;SDS011;4266;48.816;9.154;2022-07-23T09:43:09;5.53;;;5.12;;
8458;SDS011;4266;48.816;9.154;2022-07-23T09:45:35;5.57;;;5.18;;
8458;SDS011;4266;48.816;9.154;2022-07-23T09:50:34;5.00;;;4.60;;
8458;SDS011;4266;48.816;9.154;2022-07-23T09:53:00;5.30;;;4.90;;
8458;SDS011;4266;48.816;9.154;2022-07-23T09:55:31;5.82;;;5.40;;
8458;SDS011;4266;48.816;9.154;2022-07-23T09:57:51;5.37;;;4.97;;
8458;SDS011;4266;48.816;9.154;2022-07-23T10:00:17;5.32;;;4.93;;
8458;SDS011;4266;48.816;9.154;2022-07-23T10:02:43;6.12;;;5.25;;
8458;SDS011;4266;48.816;9.154;2022-07-23T10:05:08;5.57;;;4.90;;
8458;SDS011;4266;48.816;9.154;2022-07-23T10:07:36;5.70;;;5.30;;
8458;SDS011;4266;48.816;9.154;2022-07-23T10:10:00;5.72;;;5.32;;
8458;SDS011;4266;48.816;9.154;2022-07-23T10:12:25;5.45;;;5.05;;
8458;SDS011;4266;48.816;9.154;2022-07-23T10:14:56;5.68;;;5.10;;
8458;SDS011;4266;48.816;9.154;2022-07-23T10:17:20;5.72;;;5.32;;
8458;SDS011;4266;48.816;9.154;2022-07-23T10:19:46;5.43;;;5.03;;
8458;SDS011;4266;48.816;9.154;2022-07-23T10:22:13;5.72;;;4.95;;
8458;SDS011;4266;48.816;9.154;2022-07-23T10:24:41;5.00;;;4.60;;
8458;SDS011;4266;48.816;9.154;2022-07-23T10:29:47;4.85;;;4.55;;
8458;SDS011;4266;48.816;9.154;2022-07-23T10:33:20;4.90;;;4.53;;
8458;SDS011;4266;48.816;9.154;2022-07-23T10:35:07;5.50;;;5.00;;
8458;SDS011;4266;48.816;9.154;2022-07-23T10:37:32;5.05;;;4.75;;
8458;SDS011;4266;48.816;9.154;2022-07-23T10:40:19;5.53;;;5.10;;
8458;SDS011;4266;48.816;9.154;2022-07-23T10:42:44;5.03;;;4.72;;
8458;SDS011;4266;48.816;9.154;2022-07-23T10:47:48;6.05;;;5.45;;
8458;SDS011;4266;48.816;9.154;2022-07-23T10:50:19;5.55;;;5.15;;
8458;SDS011;4266;48.816;9.154;2022-07-23T10:55:38;6.20;;;5.70;;
8458;SDS011;4266;48.816;9.154;2022-07-23T10:58:06;5.95;;;5.55;;
8458;SDS011;4266;48.816;9.154;2022-07-23T11:00:32;5.07;;;4.75;;
8458;SDS011;4266;48.816;9.154;2022-07-23T11:03:00;5.80;;;5.40;;
8458;SDS011;4266;48.816;9.154;2022-07-23T11:05:38;5.40;;;4.90;;
8458;SDS011;4266;48.816;9.154;2022-07-23T11:10:41;5.50;;;5.00;;
8458;SDS011;4266;48.816;9.154;2022-07-23T11:16:06;5.65;;;5.25;;
8458;SDS011;4266;48.816;9.154;2022-07-23T11:24:13;5.40;;;5.10;;
8458;SDS011;4266;48.816;9.154;2022-07-23T11:26:45;5.15;;;4.85;;
8458;SDS011;4266;48.816;9.154;2022-07-23T11:31:51;4.95;;;4.65;;
8458;SDS011;4266;48.816;9.154;2022-07-23T11:37:07;5.37;;;5.07;;
8458;SDS011;4266;48.816;9.154;2022-07-23T11:39:32;5.80;;;5.30;;
8458;SDS011;4266;48.816;9.154;2022-07-23T11:41:57;5.68;;;5.25;;
8458;SDS011;4266;48.816;9.154;2022-07-23T11:44:26;5.62;;;5.22;;
8458;SDS011;4266;48.816;9.154;2022-07-23T11:46:57;5.97;;;5.47;;
8458;SDS011;4266;48.816;9.154;2022-07-23T11:49:23;6.90;;;5.57;;
8458;SDS011;4266;48.816;9.154;2022-07-23T11:52:20;5.95;;;5.50;;
8458;SDS011;4266;48.816;9.154;2022-07-23T11:57:14;6.55;;;5.95;;
8458;SDS011;4266;48.816;9.154;2022-07-23T11:59:39;5.72;;;5.32;;
8458;SDS011;4266;48.816;9.154;2022-07-23T12:02:05;6.05;;;5.50;;
8458;SDS011;4266;48.816;9.154;2022-07-23T12:04:37;6.05;;;5.55;;
8458;SDS011;4266;48.816;9.154;2022-07-23T12:07:02;5.93;;;5.43;;
8458;SDS011;4266;48.816;9.154;2022-07-23T12:09:27;5.78;;;5.37;;
8458;SDS011;4266;48.816;9.154;2022-07-23T12:11:58;5.95;;;5.55;;
8458;SDS011;4266;48.816;9.154;2022-07-23T12:14:23;5.93;;;5.53;;
8458;SDS011;4266;48.816;9.154;2022-07-23T12:17:06;5.80;;;5.30;;
8458;SDS011;4266;48.816;9.154;2022-07-23T12:19:15;5.70;;;5.30;;
8458;SDS011;4266;48.816;9.154;2022-07-23T12:21:41;5.72;;;5.28;;
8458;SDS011;4266;48.816;9.154;2022-07-23T12:24:07;5.80;;;5.30;;
8458;SDS011;4266;48.816;9.154;2022-07-23T12:26:33;6.00;;;5.60;;
8458;SDS011;4266;48.816;9.154;2022-07-23T12:28:58;7.37;;;5.45;;
8458;SDS011;4266;48.816;9.154;2022-07-23T12:31:26;5.87;;;5.40;;
8458;SDS011;4266;48.816;9.154;2022-07-23T12:33:51;5.70;;;5.30;;
8458;SDS011;4266;48.816;9.154;2022-07-23T12:36:16;7.28;;;6.32;;
8458;SDS011;4266;48.816;9.154;2022-07-23T12:38:43;6.80;;;6.30;;
8458;SDS011;4266;48.816;9.154;2022-07-23T12:41:09;6.68;;;5.95;;
8458;SDS011;4266;48.816;9.154;2022-07-23T12:43:36;5.95;;;5.55;;
8458;SDS011;4266;48.816;9.154;2022-07-23T12:46:08;6.30;;;5.80;;
8458;SDS011;4266;48.816;9.154;2022-07-23T12:48:34;6.20;;;5.80;;
8458;SDS011;4266;48.816;9.154;2022-07-23T12:51:00;6.95;;;6.35;;
8458;SDS011;4266;48.816;9.154;2022-07-23T12:53:28;6.75;;;6.07;;
8458;SDS011;4266;48.816;9.154;2022-07-23T12:56:10;7.70;;;6.35;;
8458;SDS011;4266;48.816;9.154;2022-07-23T13:01:28;6.40;;;5.90;;
8458;SDS011;4266;48.816;9.154;2022-07-23T13:03:54;6.60;;;6.10;;
8458;SDS011;4266;48.816;9.154;2022-07-23T13:06:22;6.40;;;5.72;;
8458;SDS011;4266;48.816;9.154;2022-07-23T13:08:48;6.32;;;5.85;;
8458;SDS011;4266;48.816;9.154;2022-07-23T13:11:14;7.68;;;5.82;;
8458;SDS011;4266;48.816;9.154;2022-07-23T13:13:41;5.80;;;5.50;;
8458;SDS011;4266;48.816;9.154;2022-07-23T13:16:11;6.18;;;5.60;;
8458;SDS011;4266;48.816;9.154;2022-07-23T13:18:36;6.62;;;6.00;;
8458;SDS011;4266;48.816;9.154;2022-07-23T13:21:03;6.28;;;5.87;;
8458;SDS011;4266;48.816;9.154;2022-07-23T13:23:28;7.37;;;6.75;;
8458;SDS011;4266;48.816;9.154;2022-07-23T13:25:54;6.40;;;6.00;;
8458;SDS011;4266;48.816;9.154;2022-07-23T13:28:20;7.12;;;6.57;;
8458;SDS011;4266;48.816;9.154;2022-07-23T13:30:46;6.97;;;6.37;;
8458;SDS011;4266;48.816;9.154;2022-07-23T13:33:11;6.37;;;5.93;;
8458;SDS011;4266;48.816;9.154;2022-07-23T13:35:37;6.90;;;6.40;;
8458;SDS011;4266;48.816;9.154;2022-07-23T13:38:04;7.20;;;6.50;;
8458;SDS011;4266;48.816;9.154;2022-07-23T13:40:29;6.90;;;6.25;;
8458;SDS011;4266;48.816;9.154;2022-07-23T13:42:55;7.15;;;6.55;;
8458;SDS011;4266;48.816;9.154;2022-07-23T13:45:21;6.93;;;6.43;;
8458;SDS011;4266;48.816;9.154;2022-07-23T13:47:46;6.97;;;6.50;;
8458;SDS011;4266;48.816;9.154;2022-07-23T13:50:12;6.95;;;6.35;;
8458;SDS011;4266;48.816;9.154;2022-07-23T13:52:37;7.87;;;6.87;;
8458;SDS011;4266;48.816;9.154;2022-07-23T13:55:04;6.78;;;6.28;;
8458;SDS011;4266;48.816;9.154;2022-07-23T13:57:31;7.22;;;6.70;;
8458;SDS011;4266;48.816;9.154;2022-07-23T13:59:56;7.40;;;6.80;;
8458;SDS011;4266;48.816;9.154;2022-07-23T14:02:21;6.47;;;5.95;;
8458;SDS011;4266;48.816;9.154;2022-07-23T14:04:47;7.05;;;6.30;;
8458;SDS011;4266;48.816;9.154;2022-07-23T14:07:13;6.87;;;6.35;;
8458;SDS011;4266;48.816;9.154;2022-07-23T14:09:38;7.18;;;6.68;;
8458;SDS011;4266;48.816;9.154;2022-07-23T14:12:04;7.03;;;6.43;;
8458;SDS011;4266;48.816;9.154;2022-07-23T14:14:31;6.78;;;6.18;;
8458;SDS011;4266;48.816;9.154;2022-07-23T14:16:56;7.85;;;6.70;;
8458;SDS011;4266;48.816;9.154;2022-07-23T14:19:22;6.65;;;6.25;;
8458;SDS011;4266;48.816;9.154;2022-07-23T14:21:48;7.25;;;6.65;;
8458;SDS011;4266;48.816;9.154;2022-07-23T14:24:14;7.15;;;6.47;;
8458;SDS011;4266;48.816;9.154;2022-07-23T14:26:39;6.37;;;5.95;;
8458;SDS011;4266;48.816;9.154;2022-07-23T14:29:05;6.18;;;5.75;;
8458;SDS011;4266;48.816;9.154;2022-07-23T14:31:30;6.57;;;6.07;;
8458;SDS011;4266;48.816;9.154;2022-07-23T14:33:56;6.65;;;6.15;;
8458;SDS011;4266;48.816;9.154;2022-07-23T14:36:22;6.90;;;6.40;;
8458;SDS011;4266;48.816;9.154;2022-07-23T14:38:48;6.55;;;6.05;;
8458;SDS011;4266;48.816;9.154;2022-07-23T14:41:14;6.72;;;6.30;;
8458;SDS011;4266;48.816;9.154;2022-07-23T14:43:39;6.30;;;5.87;;
8458;SDS011;4266;48.816;9.154;2022-07-23T14:46:05;6.35;;;5.95;;
8458;SDS011;4266;48.816;9.154;2022-07-23T14:48:31;6.93;;;6.22;;
8458;SDS011;4266;48.816;9.154;2022-07-23T14:50:56;5.80;;;5.40;;
8458;SDS011;4266;48.816;9.154;2022-07-23T14:53:22;7.18;;;6.10;;
8458;SDS011;4266;48.816;9.154;2022-07-23T14:55:48;6.78;;;6.07;;
8458;SDS011;4266;48.816;9.154;2022-07-23T14:58:15;6.37;;;5.87;;
8458;SDS011;4266;48.816;9.154;2022-07-23T15:00:40;6.18;;;5.68;;
8458;SDS011;4266;48.816;9.154;2022-07-23T15:03:07;6.25;;;5.68;;
8458;SDS011;4266;48.816;9.154;2022-07-23T15:05:33;9.30;;;6.25;;
8458;SDS011;4266;48.816;9.154;2022-07-23T15:07:59;6.65;;;6.15;;
8458;SDS011;4266;48.816;9.154;2022-07-23T15:10:24;6.12;;;5.50;;
8458;SDS011;4266;48.816;9.154;2022-07-23T15:12:50;6.35;;;5.85;;
8458;SDS011;4266;48.816;9.154;2022-07-23T15:15:16;6.07;;;5.68;;
8458;SDS011;4266;48.816;9.154;2022-07-23T15:17:42;6.87;;;6.37;;
8458;SDS011;4266;48.816;9.154;2022-07-23T15:20:08;7.47;;;6.20;;
8458;SDS011;4266;48.816;9.154;2022-07-23T15:22:34;7.07;;;6.37;;
8458;SDS011;4266;48.816;9.154;2022-07-23T15:25:00;6.50;;;6.00;;
8458;SDS011;4266;48.816;9.154;2022-07-23T15:27:26;6.62;;;6.12;;
8458;SDS011;4266;48.816;9.154;2022-07-23T15:29:52;7.03;;;6.43;;
8458;SDS011;4266;48.816;9.154;2022-07-23T15:32:17;6.95;;;6.45;;
8458;SDS011;4266;48.816;9.154;2022-07-23T15:34:43;6.62;;;6.07;;
8458;SDS011;4266;48.816;9.154;2022-07-23T15:37:09;6.93;;;6.47;;
8458;SDS011;4266;48.816;9.154;2022-07-23T15:39:35;6.80;;;6.30;;
8458;SDS011;4266;48.816;9.154;2022-07-23T15:42:01;7.00;;;6.40;;
8458;SDS011;4266;48.816;9.154;2022-07-23T15:44:27;7.28;;;6.62;;
8458;SDS011;4266;48.816;9.154;2022-07-23T15:46:53;6.93;;;6.22;;
8458;SDS011;4266;48.816;9.154;2022-07-23T15:49:18;6.95;;;6.45;;